Aviation Digital Data Service (ADDS)

Output produced by METARs form (1405 UTC 18 April 2014)
found at http://aviationweather.gov/adds/metars/
 
KISO 181131Z 1812/1912 02010G15KT P6SM SCT030 OVC200 
     FM190000 06010KT P6SM SCT010 OVC050 
     FM190400 04010KT 5SM RA BKN010 AMD LTD TO CLD VIS AND WIND